THY9521 SOCA-SYCJ
Flight info
| Callsign | THY9521 |
|---|---|
| Flight time | 1h 3m |
| Altitude | 32000 |
| Route | GEDAX UG443 GEBON/N0388F240 G443 SISEX |
| Aircraft | B738/M-SDE2E3FGHIRWXY/LB1 |
Departure
| Time | 2026-04-28 15:25 |
|---|---|
| Airport | Cayenne – Félix Eboué Airport (SOCA) |
Arrival
| Time | 2026-04-28 16:29 |
|---|---|
| Airport | Cheddi Jagan International Airport (SYCJ) |
| Time | Latitude | Longitude | Altitude | Speed | Heading |
|---|---|---|---|---|---|
| 2026-04-28 15:03 | 4.82162 | -52.36373 | 80 ft | 0 kts | 335° |
| 2026-04-28 15:19 | 4.82159 | -52.36372 | 80 ft | 3 kts | 335° |
| 2026-04-28 15:19 | 4.82134 | -52.36362 | 90 ft | 4 kts | 340° |
| 2026-04-28 15:19 | 4.82108 | -52.36354 | 88 ft | 4 kts | 350° |
| 2026-04-28 15:19 | 4.82084 | -52.36353 | 88 ft | 4 kts | 17° |
| 2026-04-28 15:20 | 4.82069 | -52.36362 | 86 ft | 0 kts | 63° |
| 2026-04-28 15:22 | 4.82071 | -52.36359 | 86 ft | 2 kts | 63° |
| 2026-04-28 15:22 | 4.82088 | -52.36325 | 88 ft | 9 kts | 63° |
| 2026-04-28 15:22 | 4.82074 | -52.36257 | 86 ft | 14 kts | 151° |
| 2026-04-28 15:22 | 4.81965 | -52.36229 | 88 ft | 19 kts | 210° |
| 2026-04-28 15:23 | 4.81886 | -52.36369 | 85 ft | 27 kts | 245° |
| 2026-04-28 15:23 | 4.81801 | -52.36553 | 86 ft | 29 kts | 245° |
| 2026-04-28 15:23 | 4.81717 | -52.36733 | 88 ft | 28 kts | 245° |
| 2026-04-28 15:23 | 4.81638 | -52.36903 | 87 ft | 26 kts | 245° |
| 2026-04-28 15:24 | 4.81564 | -52.37066 | 87 ft | 27 kts | 245° |
| 2026-04-28 15:24 | 4.81484 | -52.37237 | 87 ft | 28 kts | 245° |
| 2026-04-28 15:24 | 4.81460 | -52.37407 | 83 ft | 12 kts | 234° |
| 2026-04-28 15:24 | 4.81421 | -52.37392 | 85 ft | 7 kts | 116° |
| 2026-04-28 15:25 | 4.81436 | -52.37342 | 87 ft | 13 kts | 63° |
| 2026-04-28 15:25 | 4.81580 | -52.37031 | 86 ft | 85 kts | 65° |
| 2026-04-28 15:25 | 4.81919 | -52.36306 | 97 ft | 142 kts | 64° |
| 2026-04-28 15:25 | 4.82365 | -52.35370 | 680 ft | 149 kts | 63° |
| 2026-04-28 15:26 | 4.82820 | -52.34408 | 1432 ft | 157 kts | 67° |
| 2026-04-28 15:26 | 4.83279 | -52.33405 | 2235 ft | 163 kts | 66° |
| 2026-04-28 15:26 | 4.83986 | -52.32386 | 2732 ft | 200 kts | 41° |
| 2026-04-28 15:26 | 4.85350 | -52.31838 | 3105 ft | 235 kts | 9° |
| 2026-04-28 15:27 | 4.87038 | -52.32146 | 3625 ft | 256 kts | 337° |
| 2026-04-28 15:27 | 4.88424 | -52.33325 | 4331 ft | 270 kts | 307° |
| 2026-04-28 15:27 | 4.89155 | -52.35050 | 5175 ft | 276 kts | 285° |
| 2026-04-28 15:27 | 4.89566 | -52.36945 | 6015 ft | 280 kts | 282° |
| 2026-04-28 15:28 | 4.89920 | -52.38878 | 6817 ft | 284 kts | 280° |
| 2026-04-28 15:28 | 4.90233 | -52.40853 | 7683 ft | 287 kts | 279° |
| 2026-04-28 15:28 | 4.90517 | -52.42842 | 8486 ft | 289 kts | 277° |
| 2026-04-28 15:28 | 4.90748 | -52.44861 | 9212 ft | 294 kts | 277° |
| 2026-04-28 15:29 | 4.90974 | -52.46912 | 9973 ft | 298 kts | 276° |
| 2026-04-28 15:29 | 4.91204 | -52.49002 | 10482 ft | 310 kts | 276° |
| 2026-04-28 15:29 | 4.91447 | -52.51231 | 10664 ft | 333 kts | 276° |
| 2026-04-28 15:29 | 4.91702 | -52.53592 | 11105 ft | 345 kts | 276° |
| 2026-04-28 15:30 | 4.91958 | -52.55977 | 11740 ft | 350 kts | 276° |
| 2026-04-28 15:30 | 4.92223 | -52.58429 | 12313 ft | 358 kts | 276° |
| 2026-04-28 15:30 | 4.92491 | -52.60912 | 13096 ft | 356 kts | 276° |
| 2026-04-28 15:30 | 4.92760 | -52.63397 | 13787 ft | 361 kts | 276° |
| 2026-04-28 15:31 | 4.93033 | -52.65917 | 14343 ft | 367 kts | 276° |
| 2026-04-28 15:31 | 4.93309 | -52.68471 | 14962 ft | 370 kts | 276° |
| 2026-04-28 15:31 | 4.93590 | -52.71049 | 15566 ft | 374 kts | 276° |
| 2026-04-28 15:31 | 4.93876 | -52.73659 | 16163 ft | 378 kts | 276° |
| 2026-04-28 15:32 | 4.94166 | -52.76302 | 16755 ft | 382 kts | 276° |
| 2026-04-28 15:32 | 4.94360 | -52.78064 | 17160 ft | 385 kts | 276° |
| 2026-04-28 15:32 | 4.94751 | -52.81616 | 17956 ft | 390 kts | 276° |
| 2026-04-28 15:32 | 4.95051 | -52.84337 | 18472 ft | 395 kts | 276° |
| 2026-04-28 15:33 | 4.95353 | -52.87080 | 19004 ft | 397 kts | 276° |
| 2026-04-28 15:33 | 4.95659 | -52.89844 | 19522 ft | 400 kts | 276° |
| 2026-04-28 15:33 | 4.95968 | -52.92640 | 19994 ft | 405 kts | 276° |
| 2026-04-28 15:33 | 4.96282 | -52.95467 | 20452 ft | 409 kts | 276° |
| 2026-04-28 15:34 | 4.96492 | -52.97359 | 20760 ft | 412 kts | 276° |
| 2026-04-28 15:34 | 4.96812 | -53.00235 | 21211 ft | 417 kts | 276° |
| 2026-04-28 15:34 | 4.97242 | -53.04084 | 21830 ft | 421 kts | 276° |
| 2026-04-28 15:34 | 4.97464 | -53.06067 | 22124 ft | 424 kts | 276° |
| 2026-04-28 15:35 | 4.97796 | -53.09022 | 22553 ft | 429 kts | 276° |
| 2026-04-28 15:35 | 4.98469 | -53.15016 | 23427 ft | 436 kts | 276° |
| 2026-04-28 15:35 | 4.98811 | -53.18052 | 23801 ft | 440 kts | 276° |
| 2026-04-28 15:36 | 4.99155 | -53.21108 | 24187 ft | 442 kts | 276° |
| 2026-04-28 15:36 | 4.99501 | -53.24176 | 24589 ft | 443 kts | 276° |
| 2026-04-28 15:36 | 4.99843 | -53.27213 | 24975 ft | 445 kts | 276° |
| 2026-04-28 15:36 | 5.00192 | -53.30319 | 25351 ft | 448 kts | 276° |
| 2026-04-28 15:37 | 5.00541 | -53.33434 | 25722 ft | 450 kts | 276° |
| 2026-04-28 15:37 | 5.00892 | -53.36563 | 26087 ft | 452 kts | 277° |
| 2026-04-28 15:37 | 5.01243 | -53.39705 | 26456 ft | 454 kts | 277° |
| 2026-04-28 15:37 | 5.01595 | -53.42859 | 26818 ft | 456 kts | 276° |
| 2026-04-28 15:38 | 5.01949 | -53.46030 | 27181 ft | 458 kts | 276° |
| 2026-04-28 15:38 | 5.02306 | -53.49218 | 27517 ft | 461 kts | 277° |
| 2026-04-28 15:38 | 5.02659 | -53.52384 | 27859 ft | 463 kts | 277° |
| 2026-04-28 15:38 | 5.03020 | -53.55605 | 28201 ft | 465 kts | 277° |
| 2026-04-28 15:39 | 5.03381 | -53.58836 | 28538 ft | 467 kts | 277° |
| 2026-04-28 15:39 | 5.03744 | -53.62086 | 28885 ft | 469 kts | 277° |
| 2026-04-28 15:39 | 5.04107 | -53.65344 | 29220 ft | 470 kts | 277° |
| 2026-04-28 15:39 | 5.04472 | -53.68612 | 29549 ft | 472 kts | 277° |
| 2026-04-28 15:40 | 5.04838 | -53.71883 | 29952 ft | 472 kts | 277° |
| 2026-04-28 15:40 | 5.05203 | -53.75147 | 30394 ft | 469 kts | 276° |
| 2026-04-28 15:40 | 5.05567 | -53.78384 | 30914 ft | 464 kts | 276° |
| 2026-04-28 15:40 | 5.05932 | -53.81580 | 31478 ft | 458 kts | 276° |
| 2026-04-28 15:41 | 5.06299 | -53.84743 | 31938 ft | 455 kts | 276° |
| 2026-04-28 15:41 | 5.06672 | -53.87904 | 31990 ft | 457 kts | 276° |
| 2026-04-28 15:41 | 5.07425 | -53.94198 | 32008 ft | 456 kts | 277° |
| 2026-04-28 15:42 | 5.08186 | -54.00495 | 32011 ft | 454 kts | 277° |
| 2026-04-28 15:42 | 5.08948 | -54.06767 | 32012 ft | 453 kts | 277° |
| 2026-04-28 15:43 | 5.09712 | -54.13042 | 32012 ft | 453 kts | 277° |
| 2026-04-28 15:43 | 5.10478 | -54.19320 | 32013 ft | 453 kts | 277° |
| 2026-04-28 15:44 | 5.11248 | -54.25600 | 32011 ft | 454 kts | 277° |
| 2026-04-28 15:44 | 5.12016 | -54.31851 | 32017 ft | 455 kts | 277° |
| 2026-04-28 15:45 | 5.12791 | -54.38153 | 32010 ft | 456 kts | 277° |
| 2026-04-28 15:45 | 5.13684 | -54.44448 | 31995 ft | 456 kts | 286° |
| 2026-04-28 15:46 | 5.16109 | -54.50310 | 32012 ft | 457 kts | 296° |
| 2026-04-28 15:46 | 5.18932 | -54.56117 | 32026 ft | 469 kts | 296° |
| 2026-04-28 15:47 | 5.21857 | -54.62047 | 32023 ft | 478 kts | 297° |
| 2026-04-28 15:47 | 5.24827 | -54.68041 | 32006 ft | 479 kts | 297° |
| 2026-04-28 15:48 | 5.27810 | -54.74051 | 32016 ft | 484 kts | 297° |
| 2026-04-28 15:48 | 5.30803 | -54.80078 | 32006 ft | 486 kts | 297° |
| 2026-04-28 15:49 | 5.33822 | -54.86153 | 32008 ft | 487 kts | 297° |
| 2026-04-28 15:49 | 5.36850 | -54.92240 | 32001 ft | 487 kts | 297° |
| 2026-04-28 15:50 | 5.39881 | -54.98318 | 32003 ft | 487 kts | 295° |
| 2026-04-28 15:50 | 5.42146 | -55.04724 | 31993 ft | 486 kts | 284° |
| 2026-04-28 15:51 | 5.43586 | -55.11347 | 31993 ft | 485 kts | 282° |
| 2026-04-28 15:51 | 5.44996 | -55.17968 | 31992 ft | 485 kts | 283° |
| 2026-04-28 15:52 | 5.46995 | -55.24423 | 31998 ft | 484 kts | 289° |
| 2026-04-28 15:52 | 5.49241 | -55.30738 | 31994 ft | 483 kts | 290° |
| 2026-04-28 15:53 | 5.51482 | -55.37090 | 31994 ft | 482 kts | 289° |
| 2026-04-28 15:53 | 5.53677 | -55.43453 | 31995 ft | 482 kts | 289° |
| 2026-04-28 15:54 | 5.55852 | -55.49822 | 32001 ft | 482 kts | 289° |
| 2026-04-28 15:54 | 5.58026 | -55.56197 | 32003 ft | 482 kts | 289° |
| 2026-04-28 15:55 | 5.60199 | -55.62569 | 32009 ft | 483 kts | 289° |
| 2026-04-28 15:55 | 5.62377 | -55.68951 | 32006 ft | 483 kts | 289° |
| 2026-04-28 15:56 | 5.64558 | -55.75344 | 32007 ft | 484 kts | 289° |
| 2026-04-28 15:56 | 5.66728 | -55.81708 | 32009 ft | 484 kts | 289° |
| 2026-04-28 15:57 | 5.68911 | -55.88114 | 32006 ft | 485 kts | 289° |
| 2026-04-28 15:57 | 5.71094 | -55.94521 | 32010 ft | 485 kts | 289° |
| 2026-04-28 15:58 | 5.73280 | -56.00939 | 32007 ft | 485 kts | 289° |
| 2026-04-28 15:58 | 5.75462 | -56.07350 | 32006 ft | 485 kts | 289° |
| 2026-04-28 15:59 | 5.77278 | -56.12684 | 32011 ft | 485 kts | 289° |
| 2026-04-28 15:59 | 5.79817 | -56.20150 | 32011 ft | 484 kts | 289° |
| 2026-04-28 16:00 | 5.81993 | -56.26549 | 32016 ft | 484 kts | 289° |
| 2026-04-28 16:00 | 5.84167 | -56.32945 | 32013 ft | 481 kts | 289° |
| 2026-04-28 16:01 | 5.85229 | -56.36073 | 31995 ft | 464 kts | 289° |
| 2026-04-28 16:01 | 5.86255 | -56.39093 | 31986 ft | 448 kts | 289° |
| 2026-04-28 16:01 | 5.88234 | -56.44921 | 32004 ft | 439 kts | 289° |
| 2026-04-28 16:02 | 5.89221 | -56.47827 | 31672 ft | 439 kts | 289° |
| 2026-04-28 16:02 | 5.90200 | -56.50710 | 31325 ft | 434 kts | 289° |
| 2026-04-28 16:02 | 5.91171 | -56.53571 | 30940 ft | 431 kts | 289° |
| 2026-04-28 16:02 | 5.92137 | -56.56420 | 31826 ft | 429 kts | 288° |
| 2026-04-28 16:03 | 5.93077 | -56.59187 | 31662 ft | 418 kts | 288° |
| 2026-04-28 16:03 | 5.94006 | -56.61926 | 31437 ft | 411 kts | 288° |
| 2026-04-28 16:03 | 5.94923 | -56.64631 | 30999 ft | 408 kts | 288° |
| 2026-04-28 16:03 | 5.95837 | -56.67328 | 30515 ft | 407 kts | 288° |
| 2026-04-28 16:04 | 5.96748 | -56.70015 | 30076 ft | 405 kts | 288° |
| 2026-04-28 16:04 | 5.97654 | -56.72688 | 29694 ft | 402 kts | 288° |
| 2026-04-28 16:04 | 5.98553 | -56.75339 | 29303 ft | 399 kts | 288° |
| 2026-04-28 16:04 | 5.99445 | -56.77973 | 28877 ft | 396 kts | 288° |
| 2026-04-28 16:05 | 6.00331 | -56.80587 | 28444 ft | 394 kts | 288° |
| 2026-04-28 16:05 | 6.01213 | -56.83193 | 28014 ft | 391 kts | 288° |
| 2026-04-28 16:05 | 6.02088 | -56.85778 | 27599 ft | 389 kts | 288° |
| 2026-04-28 16:05 | 6.02956 | -56.88342 | 27180 ft | 386 kts | 288° |
| 2026-04-28 16:06 | 6.03817 | -56.90885 | 26766 ft | 383 kts | 288° |
| 2026-04-28 16:06 | 6.04663 | -56.93386 | 26357 ft | 381 kts | 288° |
| 2026-04-28 16:06 | 6.05514 | -56.95899 | 25945 ft | 378 kts | 288° |
| 2026-04-28 16:06 | 6.06358 | -56.98395 | 25537 ft | 376 kts | 288° |
| 2026-04-28 16:07 | 6.07199 | -57.00880 | 25137 ft | 374 kts | 288° |
| 2026-04-28 16:07 | 6.08032 | -57.03348 | 24728 ft | 371 kts | 288° |
| 2026-04-28 16:07 | 6.09679 | -57.08232 | 23927 ft | 366 kts | 288° |
| 2026-04-28 16:08 | 6.10494 | -57.10650 | 23525 ft | 364 kts | 288° |
| 2026-04-28 16:08 | 6.11303 | -57.13052 | 23135 ft | 362 kts | 288° |
| 2026-04-28 16:08 | 6.12107 | -57.15440 | 22737 ft | 360 kts | 288° |
| 2026-04-28 16:09 | 6.13692 | -57.20146 | 21978 ft | 355 kts | 288° |
| 2026-04-28 16:09 | 6.14481 | -57.22490 | 21595 ft | 353 kts | 288° |
| 2026-04-28 16:09 | 6.15267 | -57.24824 | 21211 ft | 351 kts | 288° |
| 2026-04-28 16:10 | 6.16824 | -57.29452 | 20459 ft | 347 kts | 288° |
| 2026-04-28 16:10 | 6.17597 | -57.31748 | 20087 ft | 345 kts | 288° |
| 2026-04-28 16:10 | 6.19126 | -57.36291 | 19332 ft | 341 kts | 288° |
| 2026-04-28 16:11 | 6.20635 | -57.40778 | 18613 ft | 337 kts | 288° |
| 2026-04-28 16:11 | 6.22118 | -57.45190 | 17893 ft | 333 kts | 288° |
| 2026-04-28 16:12 | 6.23596 | -57.49587 | 17186 ft | 330 kts | 288° |
| 2026-04-28 16:12 | 6.24328 | -57.51765 | 16828 ft | 328 kts | 288° |
| 2026-04-28 16:13 | 6.25780 | -57.56087 | 16127 ft | 324 kts | 288° |
| 2026-04-28 16:13 | 6.26499 | -57.58229 | 15768 ft | 323 kts | 288° |
| 2026-04-28 16:13 | 6.27927 | -57.62482 | 15071 ft | 319 kts | 288° |
| 2026-04-28 16:14 | 6.29332 | -57.66667 | 14227 ft | 314 kts | 288° |
| 2026-04-28 16:14 | 6.30725 | -57.70817 | 13345 ft | 311 kts | 288° |
| 2026-04-28 16:15 | 6.32091 | -57.74890 | 12516 ft | 307 kts | 288° |
| 2026-04-28 16:15 | 6.32769 | -57.76912 | 12087 ft | 305 kts | 288° |
| 2026-04-28 16:15 | 6.33185 | -57.78983 | 11619 ft | 303 kts | 269° |
| 2026-04-28 16:16 | 6.32865 | -57.83197 | 10893 ft | 301 kts | 264° |
| 2026-04-28 16:16 | 6.32676 | -57.85290 | 10550 ft | 301 kts | 264° |
| 2026-04-28 16:17 | 6.32485 | -57.87459 | 10348 ft | 295 kts | 265° |
| 2026-04-28 16:17 | 6.32313 | -57.89487 | 10200 ft | 287 kts | 265° |
| 2026-04-28 16:17 | 6.32147 | -57.91454 | 10077 ft | 278 kts | 265° |
| 2026-04-28 16:17 | 6.31987 | -57.93363 | 9914 ft | 272 kts | 265° |
| 2026-04-28 16:18 | 6.31832 | -57.95247 | 9638 ft | 270 kts | 265° |
| 2026-04-28 16:18 | 6.31678 | -57.97123 | 9367 ft | 268 kts | 265° |
| 2026-04-28 16:18 | 6.31525 | -57.98990 | 9098 ft | 267 kts | 265° |
| 2026-04-28 16:18 | 6.31375 | -58.00844 | 8822 ft | 266 kts | 265° |
| 2026-04-28 16:19 | 6.31226 | -58.02670 | 8555 ft | 264 kts | 265° |
| 2026-04-28 16:19 | 6.31077 | -58.04507 | 8291 ft | 264 kts | 265° |
| 2026-04-28 16:19 | 6.30928 | -58.06345 | 8011 ft | 264 kts | 265° |
| 2026-04-28 16:19 | 6.30779 | -58.08183 | 7742 ft | 264 kts | 265° |
| 2026-04-28 16:20 | 6.30630 | -58.10026 | 7450 ft | 264 kts | 265° |
| 2026-04-28 16:20 | 6.30531 | -58.11243 | 7266 ft | 263 kts | 265° |
| 2026-04-28 16:20 | 6.30333 | -58.13684 | 6903 ft | 261 kts | 265° |
| 2026-04-28 16:20 | 6.30236 | -58.14887 | 6724 ft | 260 kts | 265° |
| 2026-04-28 16:21 | 6.30089 | -58.16696 | 6449 ft | 259 kts | 265° |
| 2026-04-28 16:21 | 6.29943 | -58.18495 | 6178 ft | 258 kts | 265° |
| 2026-04-28 16:21 | 6.29798 | -58.20287 | 5909 ft | 257 kts | 265° |
| 2026-04-28 16:21 | 6.29652 | -58.22072 | 5638 ft | 255 kts | 265° |
| 2026-04-28 16:22 | 6.29507 | -58.23854 | 5385 ft | 256 kts | 265° |
| 2026-04-28 16:22 | 6.29362 | -58.25640 | 5107 ft | 255 kts | 265° |
| 2026-04-28 16:22 | 6.29218 | -58.27422 | 4835 ft | 258 kts | 265° |
| 2026-04-28 16:22 | 6.29071 | -58.29223 | 4552 ft | 257 kts | 265° |
| 2026-04-28 16:23 | 6.28953 | -58.30986 | 4270 ft | 255 kts | 272° |
| 2026-04-28 16:23 | 6.29441 | -58.32680 | 4000 ft | 254 kts | 300° |
| 2026-04-28 16:23 | 6.30539 | -58.34036 | 3895 ft | 246 kts | 314° |
| 2026-04-28 16:23 | 6.31748 | -58.35229 | 3779 ft | 239 kts | 315° |
| 2026-04-28 16:24 | 6.32925 | -58.36375 | 3661 ft | 232 kts | 315° |
| 2026-04-28 16:24 | 6.34063 | -58.37488 | 3531 ft | 225 kts | 317° |
| 2026-04-28 16:24 | 6.35429 | -58.38163 | 3415 ft | 217 kts | 356° |
| 2026-04-28 16:24 | 6.36811 | -58.37818 | 3249 ft | 207 kts | 31° |
| 2026-04-28 16:25 | 6.37988 | -58.37003 | 3001 ft | 204 kts | 38° |
| 2026-04-28 16:25 | 6.39079 | -58.36142 | 2738 ft | 194 kts | 40° |
| 2026-04-28 16:25 | 6.40056 | -58.35255 | 2478 ft | 185 kts | 44° |
| 2026-04-28 16:25 | 6.40947 | -58.34371 | 2246 ft | 174 kts | 45° |
| 2026-04-28 16:26 | 6.41778 | -58.33535 | 2016 ft | 163 kts | 45° |
| 2026-04-28 16:26 | 6.42546 | -58.32761 | 1819 ft | 151 kts | 45° |
| 2026-04-28 16:26 | 6.43292 | -58.32010 | 1619 ft | 153 kts | 45° |
| 2026-04-28 16:26 | 6.44035 | -58.31263 | 1410 ft | 149 kts | 45° |
| 2026-04-28 16:27 | 6.44765 | -58.30528 | 1214 ft | 148 kts | 45° |
| 2026-04-28 16:27 | 6.45493 | -58.29796 | 1019 ft | 148 kts | 45° |
| 2026-04-28 16:27 | 6.46937 | -58.28345 | 626 ft | 144 kts | 45° |
| 2026-04-28 16:28 | 6.47644 | -58.27640 | 428 ft | 143 kts | 45° |
| 2026-04-28 16:28 | 6.48343 | -58.26940 | 262 ft | 141 kts | 45° |
| 2026-04-28 16:28 | 6.49028 | -58.26250 | 126 ft | 132 kts | 45° |
| 2026-04-28 16:28 | 6.49605 | -58.25666 | 106 ft | 101 kts | 45° |
| 2026-04-28 16:29 | 6.50183 | -58.25084 | 104 ft | 27 kts | 44° |
| 2026-04-28 16:29 | 6.50347 | -58.25125 | 104 ft | 13 kts | 307° |
| 2026-04-28 16:30 | 6.50328 | -58.25183 | 104 ft | 8 kts | 238° |
| 2026-04-28 16:30 | 6.50336 | -58.25207 | 104 ft | 3 kts | 322° |
| 2026-04-28 16:30 | 6.50351 | -58.25222 | 104 ft | 3 kts | 313° |
| 2026-04-28 16:30 | 6.50354 | -58.25225 | 104 ft | 0 kts | 312° |